Time;durP1;ratioP1;P1;durP2;ratioP2;P2;SDS_P1;SDS_P2;PMS_P1;PMS_P2;Temp;Humidity;BMP_temperature;BMP_pressure;BME280_temperature;BME280_humidity;BME280_pressure;Samples;Min_cycle;Max_cycle;Signal;HPM_P1;HPM_P2
2022/10/18 00:01:56;;;;;;;7.23;6.53;;;18.60;99.90;;;;;;5061613;28;20296;-88
2022/10/18 00:04:22;;;;;;;8.47;6.70;;;18.60;99.90;;;;;;5064284;28;20182;-90
2022/10/18 00:06:49;;;;;;;7.37;6.63;;;18.50;99.90;;;;;;5050587;28;20614;-89
2022/10/18 00:09:14;;;;;;;9.57;6.67;;;18.50;99.90;;;;;;5049468;28;20172;-88
2022/10/18 00:11:41;;;;;;;7.33;6.30;;;18.40;99.90;;;;;;5060006;28;20235;-88
2022/10/18 00:14:07;;;;;;;8.30;6.87;;;18.40;99.90;;;;;;5065905;28;20197;-89
2022/10/18 00:16:34;;;;;;;8.17;6.87;;;18.40;99.90;;;;;;5074558;28;20184;-86
2022/10/18 00:19:00;;;;;;;8.00;7.20;;;18.30;99.90;;;;;;5080478;28;20162;-87
2022/10/18 00:21:26;;;;;;;8.73;7.17;;;18.30;99.90;;;;;;5055586;28;20161;-90
2022/10/18 00:23:53;;;;;;;11.20;7.20;;;18.30;99.90;;;;;;5063205;28;20194;-91
2022/10/18 00:26:24;;;;;;;9.27;7.33;;;18.30;99.90;;;;;;5079260;28;20176;-88
2022/10/18 00:28:53;;;;;;;7.70;6.93;;;18.40;99.90;;;;;;5057762;28;20166;-88
2022/10/18 00:31:27;;;;;;;9.10;7.63;;;18.60;99.90;;;;;;5065045;28;20622;-85
2022/10/18 00:33:56;;;;;;;10.83;8.27;;;18.50;99.90;;;;;;5042211;28;20161;-89
2022/10/18 00:36:24;;;;;;;9.00;8.17;;;18.50;99.90;;;;;;5024669;28;20204;-88
2022/10/18 00:38:56;;;;;;;9.03;8.10;;;18.50;99.90;;;;;;5058857;28;20204;-89
2022/10/18 00:41:27;;;;;;;9.70;8.70;;;18.50;99.90;;;;;;5041646;28;20700;-89
2022/10/18 00:44:03;;;;;;;9.77;8.23;;;18.50;99.90;;;;;;5043519;28;20550;-86
2022/10/18 00:46:35;;;;;;;10.63;7.93;;;18.50;99.90;;;;;;5043359;28;20177;-83
2022/10/18 00:49:09;;;;;;;8.87;7.97;;;18.40;99.90;;;;;;5072506;28;20216;-86
2022/10/18 00:51:43;;;;;;;9.20;7.67;;;18.30;99.90;;;;;;5061470;28;20226;-88
2022/10/18 00:54:11;;;;;;;10.10;7.63;;;18.30;99.90;;;;;;5059122;28;20188;-87
2022/10/18 00:56:37;;;;;;;9.90;7.77;;;18.30;99.90;;;;;;5060230;28;20170;-90
2022/10/18 00:59:02;;;;;;;8.40;7.60;;;18.30;99.90;;;;;;5067885;28;20223;-85
2022/10/18 01:01:30;;;;;;;9.77;8.70;;;18.30;99.90;;;;;;5066862;28;20208;-86
2022/10/18 01:03:56;;;;;;;8.97;7.77;;;18.40;99.90;;;;;;5043181;28;20210;-89
2022/10/18 01:06:27;;;;;;;9.77;7.80;;;18.40;99.90;;;;;;5066951;28;20204;-89
2022/10/18 01:09:01;;;;;;;9.40;7.70;;;18.40;99.90;;;;;;5053273;28;20178;-87
2022/10/18 01:11:49;;;;;;;9.43;8.43;;;18.50;99.90;;;;;;5072959;28;20162;-87
2022/10/18 01:14:26;;;;;;;10.47;8.57;;;18.50;99.90;;;;;;5053110;28;20240;-85
2022/10/18 01:17:09;;;;;;;10.40;8.87;;;18.50;99.90;;;;;;5071014;28;20166;-86
2022/10/18 01:19:48;;;;;;;12.37;9.70;;;18.50;99.90;;;;;;5061313;28;20232;-82
2022/10/18 01:22:27;;;;;;;10.83;9.13;;;18.60;99.90;;;;;;5060360;28;20181;-81
2022/10/18 01:25:33;;;;;;;9.33;8.43;;;18.50;99.90;;;;;;5077147;28;20177;-82
2022/10/18 01:28:35;;;;;;;10.57;9.23;;;18.50;99.90;;;;;;5038585;28;20177;-80
2022/10/18 01:31:12;;;;;;;10.10;8.43;;;18.30;99.90;;;;;;5061320;28;20170;-82
2022/10/18 01:33:52;;;;;;;9.73;8.77;;;18.20;99.90;;;;;;5044413;28;20168;-82
2022/10/18 01:36:25;;;;;;;9.80;8.90;;;18.30;99.90;;;;;;5075439;28;20161;-85
2022/10/18 01:38:54;;;;;;;13.90;9.60;;;18.40;99.90;;;;;;5054153;28;20171;-85
2022/10/18 01:41:22;;;;;;;10.77;9.63;;;18.40;99.90;;;;;;5049273;28;20175;-87
2022/10/18 01:43:53;;;;;;;9.70;8.70;;;18.50;99.90;;;;;;5037263;28;20218;-85
2022/10/18 01:46:25;;;;;;;10.87;8.37;;;18.40;99.90;;;;;;5070605;28;20172;-82
2022/10/18 01:48:55;;;;;;;10.63;8.93;;;18.30;99.90;;;;;;5079620;28;20227;-84
2022/10/18 01:51:45;;;;;;;10.47;8.93;;;18.30;99.90;;;;;;5062072;28;20148;-86
2022/10/18 01:54:20;;;;;;;9.37;8.47;;;18.30;99.90;;;;;;5078862;28;20232;-84
2022/10/18 02:00:30;;;;;;;10.30;9.20;;;18.40;99.90;;;;;;5065233;28;20196;-87
2022/10/18 02:03:05;;;;;;;10.10;9.10;;;18.40;99.90;;;;;;5059900;28;20197;-83
2022/10/18 02:05:55;;;;;;;11.17;9.03;;;18.40;99.90;;;;;;5074160;28;20196;-80
2022/10/18 02:08:21;;;;;;;9.83;8.73;;;18.20;99.90;;;;;;5075350;28;20166;-81
2022/10/18 02:10:57;;;;;;;9.83;8.83;;;18.20;99.90;;;;;;5074423;28;20190;-85
2022/10/18 02:13:28;;;;;;;10.23;9.03;;;18.20;99.90;;;;;;5071181;28;20195;-82
2022/10/18 02:15:59;;;;;;;10.60;9.50;;;18.30;99.90;;;;;;5061982;28;20218;-79
2022/10/18 02:18:35;;;;;;;9.30;8.40;;;18.20;99.90;;;;;;5073217;28;20188;-82
2022/10/18 02:21:03;;;;;;;10.73;9.47;;;18.00;99.90;;;;;;5071790;28;20170;-83
2022/10/18 02:23:31;;;;;;;10.80;9.50;;;18.10;99.90;;;;;;5071348;28;20209;-84
2022/10/18 02:25:57;;;;;;;10.83;9.73;;;18.10;99.90;;;;;;5048137;28;20191;-88
2022/10/18 02:28:23;;;;;;;10.47;9.47;;;18.20;99.90;;;;;;5054775;28;20189;-84
2022/10/18 02:31:12;;;;;;;13.13;9.37;;;18.40;99.90;;;;;;5076971;28;20158;-86
2022/10/18 02:34:10;;;;;;;11.07;9.03;;;18.30;99.90;;;;;;5078761;28;20168;-86
2022/10/18 02:37:02;;;;;;;10.77;9.60;;;18.40;99.90;;;;;;5060065;28;20201;-86
2022/10/18 02:39:39;;;;;;;10.13;8.80;;;18.40;99.90;;;;;;5052097;28;20183;-87
2022/10/18 02:42:05;;;;;;;9.60;8.70;;;18.50;99.90;;;;;;5072635;28;20200;-85
2022/10/18 02:44:38;;;;;;;11.50;9.33;;;18.40;99.90;;;;;;5072078;28;20159;-89
2022/10/18 02:47:05;;;;;;;10.60;9.60;;;18.40;99.90;;;;;;5063447;28;20175;-89
2022/10/18 02:49:32;;;;;;;14.57;9.97;;;18.40;99.90;;;;;;5058762;28;20658;-89
2022/10/18 02:51:59;;;;;;;14.13;11.10;;;18.50;99.90;;;;;;5060888;28;20255;-89
2022/10/18 02:54:27;;;;;;;13.80;12.23;;;18.40;99.90;;;;;;5045922;28;20176;-89
2022/10/18 02:56:56;;;;;;;13.47;11.77;;;18.40;99.90;;;;;;5060457;28;20199;-87
2022/10/18 02:59:25;;;;;;;13.93;12.07;;;18.10;99.90;;;;;;5056391;28;20256;-87
2022/10/18 03:01:53;;;;;;;14.73;12.43;;;18.10;99.90;;;;;;5056198;28;20196;-89
2022/10/18 03:04:20;;;;;;;13.70;11.70;;;18.00;99.90;;;;;;5040424;28;20178;-89
2022/10/18 03:06:52;;;;;;;13.17;11.77;;;18.00;99.90;;;;;;5060472;28;20141;-89
2022/10/18 03:09:20;;;;;;;14.07;12.63;;;17.90;99.90;;;;;;5058374;28;20199;-88
2022/10/18 03:11:46;;;;;;;17.40;12.50;;;17.70;99.90;;;;;;5057186;28;20673;-88
2022/10/18 03:14:12;;;;;;;17.83;15.50;;;17.80;99.90;;;;;;5061394;28;20247;-90
2022/10/18 03:16:38;;;;;;;15.10;13.40;;;17.80;99.90;;;;;;5042482;28;20243;-89
2022/10/18 03:19:06;;;;;;;16.03;14.00;;;17.60;99.90;;;;;;5063091;28;20176;-90
2022/10/18 03:21:35;;;;;;;18.10;15.03;;;17.70;99.90;;;;;;5044683;28;20173;-87
2022/10/18 03:24:01;;;;;;;19.03;16.97;;;17.70;99.90;;;;;;5061511;28;20280;-84
2022/10/18 03:26:33;;;;;;;20.77;18.43;;;17.80;99.90;;;;;;5072206;28;20236;-86
2022/10/18 03:28:59;;;;;;;22.63;18.23;;;17.80;99.90;;;;;;5054377;28;20167;-89
2022/10/18 03:31:24;;;;;;;19.93;17.83;;;17.80;99.90;;;;;;5063612;28;20169;-88
2022/10/18 03:33:50;;;;;;;19.73;17.57;;;17.60;99.90;;;;;;5065340;28;20177;-87
2022/10/18 03:36:18;;;;;;;18.57;16.43;;;17.50;99.90;;;;;;5054139;28;20185;-85
2022/10/18 03:38:43;;;;;;;22.30;18.23;;;17.40;99.90;;;;;;5044397;28;20168;-91
2022/10/18 03:41:11;;;;;;;21.93;18.90;;;17.40;99.90;;;;;;5039130;28;20206;-88
2022/10/18 03:43:39;;;;;;;20.57;17.57;;;17.40;99.90;;;;;;5055781;28;20205;-86
2022/10/18 03:46:05;;;;;;;19.33;17.17;;;17.40;99.90;;;;;;5055457;28;20254;-89
2022/10/18 03:48:31;;;;;;;20.47;18.20;;;17.30;99.90;;;;;;5059480;28;20228;-87
2022/10/18 03:50:56;;;;;;;20.23;18.13;;;17.20;99.90;;;;;;5064835;28;20173;-85
2022/10/18 03:53:24;;;;;;;19.50;17.50;;;17.20;99.90;;;;;;5050116;28;20177;-83
2022/10/18 03:55:55;;;;;;;19.43;17.43;;;17.00;99.90;;;;;;5048814;28;20151;-89
2022/10/18 03:58:21;;;;;;;20.33;17.83;;;16.90;99.90;;;;;;5038784;28;20185;-90
2022/10/18 04:00:50;;;;;;;19.47;16.90;;;16.90;99.90;;;;;;5038873;28;20189;-88
2022/10/18 04:03:17;;;;;;;21.97;18.20;;;16.90;99.90;;;;;;5053172;28;20197;-82
2022/10/18 04:05:43;;;;;;;19.80;16.33;;;16.90;99.90;;;;;;5051603;28;20176;-85
2022/10/18 04:08:08;;;;;;;21.03;17.73;;;16.90;99.90;;;;;;5032091;28;20633;-82
2022/10/18 04:10:36;;;;;;;19.80;17.20;;;17.00;99.90;;;;;;5031866;28;20176;-82
2022/10/18 04:13:02;;;;;;;18.87;16.47;;;17.00;99.90;;;;;;5031615;28;20215;-82
2022/10/18 04:15:27;;;;;;;20.77;16.77;;;17.00;99.90;;;;;;5015375;28;20627;-84
2022/10/18 04:17:53;;;;;;;18.40;15.90;;;17.00;99.90;;;;;;5032301;28;20649;-86
2022/10/18 04:20:18;;;;;;;20.30;15.97;;;16.90;99.90;;;;;;5033578;28;20199;-81
2022/10/18 04:22:46;;;;;;;18.90;15.27;;;17.00;99.90;;;;;;5019044;28;20563;-88
2022/10/18 04:25:12;;;;;;;20.47;15.93;;;17.00;99.90;;;;;;5022700;28;20195;-82
2022/10/18 04:27:37;;;;;;;18.93;15.83;;;17.10;99.90;;;;;;5019066;28;20634;-80
2022/10/18 04:30:04;;;;;;;23.17;15.30;;;17.00;99.90;;;;;;5037151;28;20175;-82
2022/10/18 04:32:30;;;;;;;17.30;15.40;;;17.00;99.90;;;;;;5002523;28;20184;-84
2022/10/18 04:34:55;;;;;;;18.97;14.93;;;17.00;99.90;;;;;;5036452;28;20169;-88
2022/10/18 04:37:22;;;;;;;17.67;14.47;;;16.90;99.90;;;;;;5039711;28;20183;-80
2022/10/18 04:39:48;;;;;;;21.13;15.10;;;16.90;99.90;;;;;;5040698;28;20256;-81
2022/10/18 04:42:14;;;;;;;17.33;14.20;;;16.90;99.90;;;;;;5004938;28;20260;-90
2022/10/18 04:44:40;;;;;;;19.47;15.07;;;16.80;99.90;;;;;;5023031;28;20183;-88
2022/10/18 04:47:05;;;;;;;20.33;15.57;;;16.80;99.90;;;;;;5040913;28;20560;-86
2022/10/18 04:49:31;;;;;;;18.60;15.47;;;16.80;99.90;;;;;;5039984;28;20238;-86
2022/10/18 04:51:57;;;;;;;17.33;14.83;;;16.80;99.90;;;;;;5041635;28;20176;-85
2022/10/18 04:54:23;;;;;;;18.37;13.87;;;16.80;99.90;;;;;;5041052;28;20178;-86
2022/10/18 04:56:48;;;;;;;18.07;15.87;;;16.80;99.90;;;;;;5041565;28;20166;-83
2022/10/18 04:59:14;;;;;;;18.03;15.43;;;16.80;99.90;;;;;;5022859;28;20190;-87
2022/10/18 05:01:39;;;;;;;19.10;14.97;;;16.90;99.90;;;;;;5025268;28;20208;-88
2022/10/18 05:04:08;;;;;;;20.27;14.27;;;17.00;99.90;;;;;;5041499;28;20344;-90
2022/10/18 05:06:35;;;;;;;16.33;14.13;;;17.00;99.90;;;;;;5060503;28;20154;-87
2022/10/18 05:09:04;;;;;;;20.80;15.77;;;16.90;99.90;;;;;;5059961;28;20172;-84
2022/10/18 05:11:33;;;;;;;18.10;14.63;;;17.00;99.90;;;;;;5060439;28;20180;-83
2022/10/18 05:14:02;;;;;;;18.43;15.07;;;17.20;99.90;;;;;;5042210;28;20247;-82
2022/10/18 05:16:58;;;;;;;17.47;13.77;;;17.20;99.90;;;;;;5057627;28;20230;-82
2022/10/18 05:19:39;;;;;;;18.17;14.57;;;17.20;99.90;;;;;;5042458;28;20197;-84
2022/10/18 05:22:20;;;;;;;19.37;14.50;;;17.20;99.90;;;;;;5025242;28;20217;-82
2022/10/18 05:24:46;;;;;;;19.47;14.70;;;17.10;99.90;;;;;;5033984;28;20165;-84
2022/10/18 05:27:12;;;;;;;19.53;15.10;;;17.00;99.90;;;;;;5033171;28;20196;-83
2022/10/18 05:29:38;;;;;;;21.33;14.90;;;17.00;99.90;;;;;;5034041;28;20193;-80
2022/10/18 05:32:03;;;;;;;16.73;13.63;;;16.90;99.90;;;;;;5052223;28;20172;-82
2022/10/18 05:34:30;;;;;;;18.67;15.20;;;16.90;99.90;;;;;;5045272;28;20162;-85
2022/10/18 05:36:57;;;;;;;21.00;14.77;;;17.00;99.90;;;;;;5040658;28;20162;-84
2022/10/18 05:39:22;;;;;;;19.50;15.43;;;17.00;99.90;;;;;;5020852;28;20618;-87
2022/10/18 05:41:51;;;;;;;19.47;14.53;;;17.10;99.90;;;;;;5024697;28;20620;-90
2022/10/18 05:44:25;;;;;;;19.10;14.07;;;17.00;99.90;;;;;;5042979;28;20232;-87
2022/10/18 05:47:06;;;;;;;18.83;15.97;;;17.10;99.90;;;;;;5041171;28;20149;-85
2022/10/18 05:49:35;;;;;;;20.60;15.67;;;17.00;99.90;;;;;;5029089;28;20198;-92
2022/10/18 05:52:00;;;;;;;25.67;15.10;;;17.00;99.90;;;;;;5028457;28;20173;-91
2022/10/18 05:54:26;;;;;;;20.50;15.73;;;17.00;99.90;;;;;;5043841;28;20187;-89
2022/10/18 05:56:52;;;;;;;20.70;15.27;;;17.10;99.90;;;;;;5042687;28;20192;-87
2022/10/18 05:59:18;;;;;;;19.93;16.03;;;17.20;99.90;;;;;;5034126;28;20216;-89
2022/10/18 06:01:44;;;;;;;24.37;16.77;;;17.30;99.90;;;;;;5044470;28;20195;-90
2022/10/18 06:04:11;;;;;;;22.10;16.13;;;17.40;99.90;;;;;;5047690;28;20199;-92
2022/10/18 06:06:38;;;;;;;22.80;16.00;;;17.50;99.90;;;;;;5044866;28;20367;-90
2022/10/18 06:09:07;;;;;;;25.40;16.27;;;17.60;99.90;;;;;;5066334;28;20177;-83
2022/10/18 06:11:34;;;;;;;20.70;16.03;;;17.70;99.90;;;;;;5056381;28;20200;-86
2022/10/18 06:14:05;;;;;;;20.43;16.00;;;17.80;99.90;;;;;;5044246;28;20203;-85
2022/10/18 06:16:34;;;;;;;29.10;19.03;;;17.90;99.90;;;;;;5035339;28;20176;-89
2022/10/18 06:19:03;;;;;;;19.70;16.30;;;17.90;99.90;;;;;;5048905;28;20276;-87
2022/10/18 06:21:29;;;;;;;24.13;16.67;;;17.90;99.90;;;;;;5029270;28;20178;-87
2022/10/18 06:23:57;;;;;;;18.97;16.57;;;17.90;99.90;;;;;;5042099;28;20216;-88
2022/10/18 06:26:27;;;;;;;19.83;16.80;;;17.90;99.90;;;;;;5025661;28;20170;-86
2022/10/18 06:28:55;;;;;;;19.03;14.83;;;17.80;99.90;;;;;;5042112;28;20186;-87
2022/10/18 06:31:30;;;;;;;17.90;15.70;;;17.50;99.90;;;;;;5018224;28;20192;-83
2022/10/18 06:33:57;;;;;;;20.67;14.23;;;17.40;99.90;;;;;;5017619;28;20190;-85
2022/10/18 06:36:23;;;;;;;20.33;15.20;;;17.50;99.90;;;;;;5022214;28;20170;-88
2022/10/18 06:38:49;;;;;;;19.40;15.43;;;17.40;99.90;;;;;;5038706;28;20199;-90
2022/10/18 06:41:16;;;;;;;22.23;15.40;;;17.60;99.90;;;;;;5056881;28;20169;-82
2022/10/18 06:43:46;;;;;;;20.57;15.77;;;17.70;99.90;;;;;;5054779;28;20210;-84
2022/10/18 06:46:12;;;;;;;21.57;16.03;;;17.80;99.90;;;;;;5037135;28;20226;-83
2022/10/18 06:48:38;;;;;;;19.73;12.53;;;17.90;99.90;;;;;;5037267;28;20177;-82
2022/10/18 06:51:06;;;;;;;16.90;11.80;;;17.80;99.90;;;;;;5037461;28;20173;-82
2022/10/18 06:53:35;;;;;;;21.00;12.93;;;17.90;99.90;;;;;;5037805;28;20488;-87
2022/10/18 06:56:04;;;;;;;20.70;11.23;;;17.90;99.90;;;;;;5039253;28;20236;-86
2022/10/18 06:58:30;;;;;;;17.20;10.27;;;17.90;99.90;;;;;;5039932;28;20169;-84
2022/10/18 07:00:57;;;;;;;15.87;10.33;;;17.80;99.90;;;;;;5057788;28;20201;-83
2022/10/18 07:03:23;;;;;;;17.63;9.83;;;17.80;99.90;;;;;;5023111;28;20221;-85
2022/10/18 07:05:50;;;;;;;17.77;10.23;;;17.90;99.90;;;;;;5022306;28;20289;-82
2022/10/18 07:08:17;;;;;;;15.67;10.50;;;18.00;99.90;;;;;;5040401;28;20181;-83
2022/10/18 07:10:51;;;;;;;14.67;10.50;;;18.10;99.90;;;;;;5040954;28;20214;-81
2022/10/18 07:13:17;;;;;;;19.13;10.60;;;18.00;99.90;;;;;;5062672;28;20566;-82
2022/10/18 07:15:44;;;;;;;18.73;9.87;;;17.90;99.90;;;;;;5049668;28;20201;-82
2022/10/18 07:18:10;;;;;;;19.77;11.23;;;18.00;99.90;;;;;;5047930;28;20183;-81
2022/10/18 07:20:35;;;;;;;19.30;9.80;;;18.00;99.90;;;;;;5045709;28;20179;-86
2022/10/18 07:23:04;;;;;;;16.57;7.87;;;17.90;99.90;;;;;;5058375;28;20662;-83
2022/10/18 07:25:31;;;;;;;13.17;8.07;;;17.80;99.90;;;;;;5044100;28;20229;-82
2022/10/18 07:27:59;;;;;;;17.97;7.03;;;17.70;99.90;;;;;;5059461;28;20191;-87
2022/10/18 07:30:26;;;;;;;20.03;7.07;;;17.80;99.50;;;;;;5060645;28;20169;-83
2022/10/18 07:36:14;;;;;;;20.67;6.40;;;17.60;99.00;;;;;;5070686;28;20173;-82
2022/10/18 07:42:05;;;;;;;18.73;5.73;;;17.60;98.60;;;;;;5066871;28;20267;-83
2022/10/18 07:44:31;;;;;;;12.77;5.03;;;17.60;98.20;;;;;;5029557;28;20205;-84
2022/10/18 07:47:16;;;;;;;10.97;4.40;;;17.60;97.10;;;;;;5042158;28;20180;-85
2022/10/18 07:49:45;;;;;;;12.90;4.17;;;17.50;96.20;;;;;;5039263;28;20621;-80
2022/10/18 07:52:24;;;;;;;15.07;4.10;;;17.50;96.30;;;;;;5056297;28;20174;-82
2022/10/18 07:54:50;;;;;;;16.83;4.53;;;17.60;96.40;;;;;;5038149;28;20173;-81
2022/10/18 07:57:17;;;;;;;14.50;4.60;;;17.70;96.30;;;;;;5040069;28;20664;-89
2022/10/18 07:59:46;;;;;;;11.60;4.10;;;17.90;95.50;;;;;;5040588;28;20180;-85
2022/10/18 08:02:12;;;;;;;13.80;3.97;;;18.00;94.80;;;;;;5058330;28;20210;-81
2022/10/18 08:04:38;;;;;;;15.53;4.53;;;18.00;93.90;;;;;;5042612;28;20173;-83
2022/10/18 08:07:05;;;;;;;14.23;4.40;;;17.90;93.30;;;;;;5041336;28;20200;-83
2022/10/18 08:09:31;;;;;;;15.33;4.90;;;18.00;92.60;;;;;;5057578;28;20170;-82
2022/10/18 08:11:57;;;;;;;12.97;3.90;;;17.90;91.80;;;;;;5057860;28;20176;-83
2022/10/18 08:14:23;;;;;;;14.77;5.63;;;17.90;91.10;;;;;;5039380;28;20305;-81
2022/10/18 08:16:48;;;;;;;13.57;5.00;;;17.90;92.70;;;;;;5024620;28;20249;-82
2022/10/18 08:19:14;;;;;;;13.37;5.33;;;18.00;93.20;;;;;;5040418;28;20223;-82
2022/10/18 08:21:40;;;;;;;13.37;6.07;;;17.90;93.40;;;;;;5040741;28;20643;-83
2022/10/18 08:24:05;;;;;;;16.67;7.73;;;18.10;93.40;;;;;;5047373;28;20249;-84
2022/10/18 08:26:31;;;;;;;15.93;6.67;;;18.10;94.90;;;;;;5060091;28;20171;-83
2022/10/18 08:28:57;;;;;;;21.80;7.63;;;17.90;94.80;;;;;;5061814;28;20169;-85
2022/10/18 08:31:31;;;;;;;20.87;7.80;;;18.00;95.10;;;;;;5063402;28;20241;-83
2022/10/18 08:34:21;;;;;;;15.20;7.30;;;17.90;95.90;;;;;;5070382;28;20188;-82
2022/10/18 08:36:50;;;;;;;15.43;6.10;;;17.70;96.60;;;;;;5043142;28;20420;-82
2022/10/18 08:39:20;;;;;;;16.30;5.30;;;17.70;95.40;;;;;;5058941;28;20199;-84
2022/10/18 08:41:58;;;;;;;13.83;4.87;;;17.60;93.20;;;;;;5058832;28;20164;-86
2022/10/18 08:44:32;;;;;;;14.07;4.33;;;17.50;92.50;;;;;;5050056;28;20242;-84
2022/10/18 08:47:19;;;;;;;15.87;4.93;;;17.50;93.40;;;;;;5042608;28;20617;-86
2022/10/18 08:49:51;;;;;;;16.00;5.07;;;17.60;93.30;;;;;;5058873;28;20193;-85
2022/10/18 08:52:21;;;;;;;18.40;7.43;;;17.60;91.20;;;;;;5072567;28;20190;-82
2022/10/18 08:54:54;;;;;;;20.80;7.73;;;17.70;91.60;;;;;;5074055;28;20178;-82
2022/10/18 08:57:21;;;;;;;20.13;7.20;;;17.60;93.10;;;;;;5054353;28;20259;-82
2022/10/18 08:59:47;;;;;;;19.90;7.63;;;17.70;94.10;;;;;;5049053;28;20169;-83
2022/10/18 09:02:58;;;;;;;16.37;7.47;;;17.90;93.90;;;;;;5059290;28;20197;-91
2022/10/18 09:05:44;;;;;;;16.23;8.27;;;18.10;94.00;;;;;;4962427;29;20203;-92
2022/10/18 09:08:40;;;;;;;19.10;6.37;;;18.10;92.40;;;;;;4961423;28;20177;-90
2022/10/18 09:11:46;;;;;;;18.23;6.87;;;18.00;90.20;;;;;;5029957;28;20184;-92
2022/10/18 09:15:08;;;;;;;17.93;6.77;;;18.00;88.10;;;;;;5061439;28;20277;-91
2022/10/18 09:18:18;;;;;;;20.47;7.57;;;18.10;90.80;;;;;;5043376;28;20186;-89
2022/10/18 09:20:55;;;;;;;17.43;8.30;;;18.20;92.50;;;;;;4950810;29;20751;-91
2022/10/18 09:23:39;;;;;;;23.33;8.13;;;18.00;93.10;;;;;;4966847;29;20246;-92
2022/10/18 09:26:21;;;;;;;19.30;8.47;;;18.10;93.40;;;;;;5029727;28;20188;-89
2022/10/18 09:29:14;;;;;;;26.63;8.87;;;18.20;93.10;;;;;;5050433;28;20163;-91
2022/10/18 09:31:40;;;;;;;16.47;8.00;;;18.30;93.00;;;;;;5052630;28;20173;-90
2022/10/18 09:34:30;;;;;;;22.77;8.53;;;18.10;91.50;;;;;;5059266;28;20248;-89
2022/10/18 09:36:56;;;;;;;18.67;7.97;;;18.00;91.80;;;;;;5074293;28;20160;-90
2022/10/18 09:39:29;;;;;;;16.67;8.27;;;18.00;91.80;;;;;;5054357;28;20181;-89
2022/10/18 09:42:13;;;;;;;18.33;7.77;;;18.00;90.00;;;;;;5073573;28;20169;-84
2022/10/18 09:45:01;;;;;;;15.27;7.67;;;18.10;88.70;;;;;;5071938;28;20201;-85
2022/10/18 09:47:38;;;;;;;22.73;8.23;;;18.10;88.40;;;;;;5051196;28;20173;-88
2022/10/18 09:50:25;;;;;;;16.53;6.93;;;18.20;90.00;;;;;;5045736;28;20169;-89
2022/10/18 09:56:27;;;;;;;17.23;7.83;;;18.40;84.90;;;;;;5058220;28;20169;-86
2022/10/18 09:58:55;;;;;;;17.90;8.30;;;18.50;90.30;;;;;;5040787;28;20169;-86
2022/10/18 10:01:29;;;;;;;20.20;8.57;;;18.40;89.80;;;;;;5041009;28;20197;-90
2022/10/18 10:03:55;;;;;;;16.57;7.50;;;18.40;89.80;;;;;;5045808;28;20224;-90
2022/10/18 10:06:24;;;;;;;17.77;6.20;;;18.40;89.30;;;;;;5062703;28;20203;-91
2022/10/18 10:09:05;;;;;;;16.47;6.90;;;18.60;84.80;;;;;;5064096;28;20177;-88
2022/10/18 10:11:31;;;;;;;18.07;7.10;;;18.70;82.80;;;;;;5045907;28;20170;-87
2022/10/18 10:14:27;;;;;;;13.27;5.97;;;18.80;78.90;;;;;;5060503;28;20181;-86
2022/10/18 10:17:02;;;;;;;14.63;5.70;;;18.80;73.40;;;;;;5040447;28;20640;-85
2022/10/18 10:19:55;;;;;;;18.13;6.03;;;18.80;65.80;;;;;;5060659;28;20217;-87
2022/10/18 10:22:39;;;;;;;12.53;4.70;;;18.70;63.60;;;;;;5077457;28;20207;-88
2022/10/18 10:25:06;;;;;;;15.93;5.80;;;18.70;59.60;;;;;;5077668;28;20178;-87
2022/10/18 10:27:43;;;;;;;15.00;7.40;;;18.80;52.70;;;;;;5060331;28;20181;-89
2022/10/18 10:30:37;;;;;;;12.53;5.40;;;18.70;60.30;;;;;;5046902;28;20193;-87
2022/10/18 10:33:05;;;;;;;17.40;6.53;;;18.70;59.30;;;;;;5056933;28;20272;-87
2022/10/18 10:35:37;;;;;;;16.03;7.00;;;18.90;59.00;;;;;;5080037;28;20162;-89
2022/10/18 10:38:04;;;;;;;14.37;7.70;;;19.00;61.00;;;;;;5063671;28;20159;-86
2022/10/18 10:40:33;;;;;;;22.70;7.37;;;19.00;59.20;;;;;;5070570;28;20244;-85
2022/10/18 10:43:05;;;;;;;17.27;8.00;;;18.90;57.50;;;;;;5072090;28;20272;-83
2022/10/18 10:45:38;;;;;;;16.03;6.53;;;18.80;59.30;;;;;;5089230;28;20463;-86
2022/10/18 10:48:14;;;;;;;13.70;5.60;;;18.80;55.60;;;;;;5051842;28;20185;-87
2022/10/18 10:51:07;;;;;;;16.90;6.27;;;18.90;49.00;;;;;;5068407;28;20177;-86
2022/10/18 10:53:40;;;;;;;17.10;6.53;;;18.80;43.10;;;;;;5084630;28;20675;-87
2022/10/18 10:56:16;;;;;;;35.47;14.90;;;19.00;49.00;;;;;;5071085;28;20177;-87
2022/10/18 10:58:45;;;;;;;17.20;6.83;;;19.10;55.20;;;;;;5073651;28;20177;-82
2022/10/18 11:01:20;;;;;;;16.67;6.30;;;19.30;53.10;;;;;;5091667;28;20199;-83
2022/10/18 11:03:49;;;;;;;16.20;5.00;;;19.60;47.70;;;;;;5090575;28;20258;-86
2022/10/18 11:07:00;;;;;;;18.33;5.67;;;19.50;33.00;;;;;;5066514;28;20191;-88
2022/10/18 11:09:49;;;;;;;12.70;4.37;;;19.60;34.20;;;;;;5019863;28;20194;-83
2022/10/18 11:12:34;;;;;;;15.53;4.23;;;19.70;30.20;;;;;;5059345;28;20167;-85
2022/10/18 11:15:17;;;;;;;14.53;4.30;;;19.60;28.60;;;;;;5059640;28;20168;-87
2022/10/18 11:18:04;;;;;;;15.97;4.10;;;19.60;24.90;;;;;;5080525;28;20203;-83
2022/10/18 11:20:40;;;;;;;17.63;4.73;;;19.80;1.00;;;;;;5057531;28;20192;-83
2022/10/18 11:23:15;;;;;;;13.77;4.07;;;20.00;1.00;;;;;;5075533;28;20214;-83
2022/10/18 11:26:11;;;;;;;15.47;4.27;;;19.90;1.00;;;;;;5041341;28;20284;-81
2022/10/18 11:29:03;;;;;;;13.57;4.80;;;19.70;5.30;;;;;;5057532;28;20585;-83
2022/10/18 11:31:35;;;;;;;12.23;4.23;;;19.50;18.30;;;;;;5059980;28;20171;-84
2022/10/18 11:34:14;;;;;;;12.07;3.77;;;19.60;9.00;;;;;;5062094;28;20233;-84
2022/10/18 11:36:58;;;;;;;15.33;4.70;;;19.70;3.00;;;;;;5061543;28;20630;-83
2022/10/18 11:39:52;;;;;;;12.33;3.97;;;19.70;1.00;;;;;;5080326;28;20181;-83
2022/10/18 11:42:36;;;;;;;10.60;3.47;;;19.80;1.00;;;;;;5068621;28;20199;-82
2022/10/18 11:45:04;;;;;;;12.87;4.03;;;20.20;1.00;;;;;;5095130;28;20171;-83
2022/10/18 11:47:53;;;;;;;11.07;4.10;;;20.40;1.00;;;;;;5075392;28;20164;-83
2022/10/18 11:50:25;;;;;;;10.47;3.27;;;20.20;1.00;;;;;;5079214;28;20172;-87
2022/10/18 11:53:15;;;;;;;14.60;3.60;;;19.90;1.00;;;;;;5082701;28;20209;-86
2022/10/18 11:56:02;;;;;;;14.03;3.80;;;20.00;1.00;;;;;;5075029;28;20232;-90
2022/10/18 11:59:05;;;;;;;11.33;3.00;;;20.20;1.00;;;;;;5085834;28;20187;-90
2022/10/18 12:01:32;;;;;;;8.70;2.70;;;20.30;1.00;;;;;;5063593;28;20233;-90
2022/10/18 12:04:10;;;;;;;6.37;2.87;;;20.40;1.00;;;;;;5065120;28;20225;-91
2022/10/18 12:06:39;;;;;;;8.97;2.30;;;20.50;1.00;;;;;;5081951;28;20176;-90
2022/10/18 12:09:25;;;;;;;9.87;2.63;;;20.70;1.00;;;;;;5063130;28;20180;-89
2022/10/18 12:12:01;;;;;;;11.00;2.57;;;20.60;1.00;;;;;;5064345;28;20164;-90
2022/10/18 12:14:45;;;;;;;6.83;2.63;;;20.80;1.00;;;;;;5083154;28;20722;-90
2022/10/18 12:17:30;;;;;;;9.63;2.70;;;21.10;1.00;;;;;;5063834;28;20188;-91
2022/10/18 12:20:05;;;;;;;8.77;4.77;;;21.30;1.00;;;;;;5080951;28;20307;-91
2022/10/18 12:22:39;;;;;;;11.03;3.30;;;21.60;1.00;;;;;;5063900;28;20209;-90
2022/10/18 12:25:13;;;;;;;8.27;2.27;;;21.40;1.00;;;;;;5082394;28;20165;-88
2022/10/18 12:27:45;;;;;;;10.47;2.60;;;21.10;1.00;;;;;;5063987;28;20196;-88
2022/10/18 12:30:22;;;;;;;8.43;2.87;;;20.90;1.00;;;;;;5064823;28;20172;-90
2022/10/18 12:32:49;;;;;;;8.30;2.90;;;20.90;1.00;;;;;;5067371;28;20172;-89
2022/10/18 12:35:17;;;;;;;9.23;2.87;;;20.90;1.00;;;;;;5083047;28;20283;-90
2022/10/18 12:37:46;;;;;;;11.47;3.13;;;20.80;1.00;;;;;;5065849;28;20164;-89
2022/10/18 12:40:33;;;;;;;11.73;3.30;;;20.80;1.00;;;;;;5065817;28;20185;-89
2022/10/18 12:42:59;;;;;;;10.33;3.13;;;20.90;1.00;;;;;;5063707;28;20234;-90
2022/10/18 12:45:31;;;;;;;8.13;3.10;;;20.80;1.00;;;;;;5063034;28;20172;-91
2022/10/18 12:48:07;;;;;;;9.73;3.30;;;20.80;1.00;;;;;;5081707;28;20191;-92
2022/10/18 12:50:42;;;;;;;9.33;2.97;;;20.80;1.00;;;;;;5065016;28;20176;-89
2022/10/18 12:53:23;;;;;;;9.53;3.03;;;20.80;1.00;;;;;;5072617;28;20177;-91
2022/10/18 12:55:50;;;;;;;16.97;6.17;;;20.90;1.00;;;;;;5091380;28;20170;-89
2022/10/18 12:58:22;;;;;;;11.03;3.23;;;21.10;1.00;;;;;;5069117;28;20184;-90
2022/10/18 13:00:48;;;;;;;9.03;2.40;;;21.30;1.00;;;;;;5064962;28;20199;-90
2022/10/18 13:03:17;;;;;;;9.47;3.30;;;21.20;1.00;;;;;;5069023;28;20291;-91
2022/10/18 13:05:54;;;;;;;10.83;2.70;;;21.00;1.00;;;;;;5069243;28;20248;-90
2022/10/18 13:08:26;;;;;;;15.00;2.83;;;20.80;1.00;;;;;;5068903;28;20283;-90
2022/10/18 13:11:10;;;;;;;6.53;2.40;;;20.70;1.00;;;;;;5067942;28;20316;-89
2022/10/18 13:13:44;;;;;;;7.93;2.63;;;20.60;1.00;;;;;;5083647;28;20219;-89
2022/10/18 13:16:30;;;;;;;8.30;2.47;;;20.40;1.00;;;;;;5069249;28;20193;-89
2022/10/18 13:19:18;;;;;;;9.13;2.43;;;20.40;1.00;;;;;;5071764;28;20534;-89